Time;durP1;ratioP1;P1;durP2;ratioP2;P2;SDS_P1;SDS_P2;PMS_P1;PMS_P2;Temp;Humidity;BMP_temperature;BMP_pressure;BME280_temperature;BME280_humidity;BME280_pressure;Samples;Min_cycle;Max_cycle;Signal;HPM_P1;HPM_P2
2023/08/19 00:01:31;;;;;;;1.05;0.98;;;22.20;99.90;;;;;;5030676;28;20289;-70
2023/08/19 00:03:56;;;;;;;1.13;1.10;;;22.20;99.90;;;;;;5034265;28;20117;-69
2023/08/19 00:06:39;;;;;;;1.37;1.37;;;22.30;99.90;;;;;;5014732;28;20356;-68
2023/08/19 00:09:08;;;;;;;3.03;1.17;;;22.30;99.90;;;;;;5026322;28;20109;-68
2023/08/19 00:11:35;;;;;;;1.50;1.33;;;22.30;99.90;;;;;;5026942;28;20052;-69
2023/08/19 00:14:05;;;;;;;0.50;0.50;;;22.40;99.90;;;;;;5019436;28;20091;-68
2023/08/19 00:16:32;;;;;;;3.67;1.77;;;22.40;99.90;;;;;;5022832;28;20380;-69
2023/08/19 00:18:58;;;;;;;0.50;0.47;;;22.40;99.90;;;;;;5029782;28;20029;-81
2023/08/19 00:21:24;;;;;;;0.75;0.75;;;22.40;99.90;;;;;;5014889;28;20034;-69
2023/08/19 00:23:50;;;;;;;0.47;0.47;;;22.50;99.90;;;;;;5029879;28;20029;-68
2023/08/19 00:26:16;;;;;;;2.33;1.27;;;22.50;99.90;;;;;;5034003;28;20034;-69
2023/08/19 00:28:42;;;;;;;0.70;0.70;;;22.50;99.90;;;;;;5033522;28;20025;-69
2023/08/19 00:31:08;;;;;;;1.10;1.10;;;22.50;99.90;;;;;;5027549;28;20029;-69
2023/08/19 00:33:35;;;;;;;0.70;0.70;;;22.50;99.90;;;;;;5021200;28;20029;-69
2023/08/19 00:36:02;;;;;;;1.92;0.98;;;22.50;99.90;;;;;;5031685;28;20120;-69
2023/08/19 00:38:28;;;;;;;1.13;1.13;;;22.50;99.90;;;;;;5024208;28;20034;-69
2023/08/19 00:40:54;;;;;;;0.45;0.45;;;22.50;99.90;;;;;;5031608;28;20044;-69
2023/08/19 00:43:19;;;;;;;1.17;1.17;;;22.50;99.90;;;;;;5030149;28;20106;-69
2023/08/19 00:45:48;;;;;;;0.93;0.93;;;22.60;99.90;;;;;;5027614;28;20046;-70
2023/08/19 00:48:15;;;;;;;1.33;1.25;;;22.60;99.90;;;;;;5030372;28;20096;-69
2023/08/19 00:50:42;;;;;;;1.05;1.05;;;22.60;99.90;;;;;;5015802;28;20324;-69
2023/08/19 00:53:09;;;;;;;6.22;0.47;;;22.70;99.90;;;;;;5021627;28;20416;-69
2023/08/19 00:55:35;;;;;;;1.42;1.33;;;22.70;99.90;;;;;;5025798;28;20284;-69
2023/08/19 00:58:03;;;;;;;0.52;0.52;;;22.80;99.90;;;;;;5027604;28;20424;-69
2023/08/19 01:00:33;;;;;;;1.33;1.23;;;22.80;99.90;;;;;;5026760;28;20029;-68
2023/08/19 01:02:59;;;;;;;0.43;0.43;;;22.80;99.90;;;;;;5029584;28;20030;-69
2023/08/19 01:05:49;;;;;;;0.88;0.88;;;22.80;99.90;;;;;;5028481;28;20056;-69
2023/08/19 01:08:22;;;;;;;1.20;1.10;;;22.80;99.90;;;;;;5030363;28;20187;-69
2023/08/19 01:10:50;;;;;;;2.25;0.90;;;22.80;99.90;;;;;;5026564;28;20084;-68
2023/08/19 01:13:20;;;;;;;0.77;0.77;;;22.80;99.90;;;;;;5032263;28;20034;-69
2023/08/19 01:15:57;;;;;;;1.05;1.05;;;22.80;99.90;;;;;;5031537;28;20040;-71
2023/08/19 01:18:24;;;;;;;1.25;1.25;;;22.90;99.90;;;;;;5026066;28;20025;-69
2023/08/19 01:20:52;;;;;;;0.63;0.63;;;22.90;99.90;;;;;;5028305;28;20064;-69
2023/08/19 01:23:27;;;;;;;2.72;0.95;;;22.90;99.90;;;;;;5032359;28;20025;-70
2023/08/19 01:25:53;;;;;;;0.50;0.50;;;22.90;99.90;;;;;;5029726;28;20087;-69
2023/08/19 01:28:21;;;;;;;0.45;0.45;;;22.80;99.90;;;;;;5029272;28;20037;-69
2023/08/19 01:30:47;;;;;;;0.90;0.90;;;22.80;99.90;;;;;;5022787;28;20034;-68
2023/08/19 01:33:13;;;;;;;2.30;1.00;;;22.80;99.90;;;;;;5020170;28;20132;-69
2023/08/19 01:35:46;;;;;;;1.52;1.23;;;22.90;99.90;;;;;;5032776;28;20026;-69
2023/08/19 01:38:43;;;;;;;1.27;1.05;;;22.90;99.90;;;;;;5031987;28;20585;-69
2023/08/19 01:41:13;;;;;;;0.90;0.90;;;22.80;99.90;;;;;;5016741;28;20041;-69
2023/08/19 01:43:40;;;;;;;1.38;1.00;;;22.80;99.90;;;;;;5028913;28;20040;-68
2023/08/19 01:46:06;;;;;;;2.72;1.60;;;22.90;99.90;;;;;;5031044;28;20060;-69
2023/08/19 01:48:33;;;;;;;1.27;1.20;;;22.80;99.90;;;;;;5027622;28;20060;-69
2023/08/19 01:50:59;;;;;;;1.70;1.47;;;22.80;99.90;;;;;;5020320;28;20029;-69
2023/08/19 01:53:24;;;;;;;4.40;2.23;;;22.80;99.90;;;;;;5035836;28;20025;-69
2023/08/19 01:55:50;;;;;;;0.53;0.53;;;22.90;99.90;;;;;;5046749;28;20439;-69
2023/08/19 01:58:16;;;;;;;0.30;0.30;;;22.80;99.90;;;;;;5034808;28;20029;-69
2023/08/19 02:00:41;;;;;;;0.70;0.60;;;22.80;99.90;;;;;;5028282;28;20472;-69
2023/08/19 02:03:07;;;;;;;0.83;0.83;;;22.80;99.90;;;;;;5022552;28;20025;-69
2023/08/19 02:05:33;;;;;;;0.70;0.70;;;22.80;99.90;;;;;;5029431;28;20097;-70
2023/08/19 02:07:58;;;;;;;1.80;1.47;;;22.70;99.90;;;;;;5030300;28;20327;-69
2023/08/19 02:10:24;;;;;;;0.30;0.30;;;22.70;99.90;;;;;;5028772;28;20030;-69
2023/08/19 02:12:50;;;;;;;0.57;0.57;;;22.70;99.90;;;;;;5033775;28;20132;-70
2023/08/19 02:15:15;;;;;;;2.72;1.70;;;22.70;99.90;;;;;;5048853;28;20037;-69
2023/08/19 02:17:41;;;;;;;0.83;0.83;;;22.70;99.90;;;;;;5027694;28;20030;-70
2023/08/19 02:20:07;;;;;;;1.93;1.60;;;22.60;99.90;;;;;;5024967;28;20286;-69
2023/08/19 02:22:33;;;;;;;1.15;1.05;;;22.60;99.90;;;;;;5031336;28;20048;-70
2023/08/19 02:24:58;;;;;;;2.37;1.80;;;22.70;99.90;;;;;;5028105;28;20033;-69
2023/08/19 02:27:25;;;;;;;1.97;1.87;;;22.60;99.90;;;;;;5020748;28;20128;-69
2023/08/19 02:29:51;;;;;;;0.90;0.90;;;22.60;99.90;;;;;;5027472;28;20424;-70
2023/08/19 02:32:17;;;;;;;1.07;1.07;;;22.60;99.90;;;;;;5023964;28;20025;-69
2023/08/19 02:34:42;;;;;;;0.87;0.83;;;22.60;99.90;;;;;;5033583;28;20340;-70
2023/08/19 02:37:09;;;;;;;4.73;0.73;;;22.60;99.90;;;;;;5036925;28;20025;-70
2023/08/19 02:39:35;;;;;;;1.48;1.38;;;22.60;99.90;;;;;;5036884;28;20499;-69
2023/08/19 02:42:00;;;;;;;0.70;0.70;;;22.50;99.90;;;;;;5033074;28;20040;-69
2023/08/19 02:44:26;;;;;;;1.23;1.17;;;22.50;99.90;;;;;;5033580;28;20099;-69
2023/08/19 02:46:52;;;;;;;1.00;1.00;;;22.50;99.90;;;;;;5036201;28;20285;-70
2023/08/19 02:49:17;;;;;;;1.00;1.00;;;22.40;99.90;;;;;;5034711;28;20037;-70
2023/08/19 02:51:43;;;;;;;1.37;1.27;;;22.40;99.90;;;;;;5035034;28;20057;-69
2023/08/19 02:54:10;;;;;;;3.10;1.33;;;22.40;99.90;;;;;;5033683;28;20045;-70
2023/08/19 02:56:36;;;;;;;0.52;0.52;;;22.40;99.90;;;;;;5024404;28;20321;-69
2023/08/19 02:59:02;;;;;;;1.73;1.53;;;22.40;99.90;;;;;;5024191;28;20045;-70
2023/08/19 03:01:27;;;;;;;2.87;2.50;;;22.40;99.90;;;;;;5023999;28;20405;-70
2023/08/19 03:03:53;;;;;;;1.53;1.50;;;22.30;99.90;;;;;;5016557;28;20506;-70
2023/08/19 03:06:19;;;;;;;5.73;1.47;;;22.30;99.90;;;;;;5029614;28;20064;-70
2023/08/19 03:08:44;;;;;;;0.90;0.90;;;22.30;99.90;;;;;;5029038;28;20018;-70
2023/08/19 03:11:10;;;;;;;1.73;1.63;;;22.30;99.90;;;;;;5030496;28;20087;-70
2023/08/19 03:13:35;;;;;;;0.70;0.70;;;22.30;99.90;;;;;;5049513;28;20021;-70
2023/08/19 03:16:02;;;;;;;2.33;1.63;;;22.30;99.90;;;;;;5036069;28;20030;-70
2023/08/19 03:18:28;;;;;;;1.02;1.02;;;22.30;99.90;;;;;;5032928;28;20029;-70
2023/08/19 03:21:03;;;;;;;2.40;1.20;;;22.30;99.90;;;;;;5031999;28;20329;-70
2023/08/19 03:23:28;;;;;;;0.80;0.80;;;22.30;99.90;;;;;;5034003;28;20025;-69
2023/08/19 03:25:56;;;;;;;0.83;0.67;;;22.40;99.90;;;;;;5036159;28;20275;-78
2023/08/19 03:28:22;;;;;;;0.55;0.55;;;22.40;99.90;;;;;;5031785;28;20017;-70
2023/08/19 03:30:48;;;;;;;2.67;1.40;;;22.40;99.90;;;;;;5028129;28;20424;-69
2023/08/19 03:33:13;;;;;;;1.30;1.20;;;22.40;99.90;;;;;;5050412;28;20036;-69
2023/08/19 03:35:39;;;;;;;1.08;1.08;;;22.40;99.90;;;;;;5023479;28;20453;-70
2023/08/19 03:38:05;;;;;;;0.73;0.73;;;22.40;99.90;;;;;;5033598;28;20044;-69
2023/08/19 03:40:31;;;;;;;4.80;1.67;;;22.40;99.90;;;;;;5027054;28;20053;-70
2023/08/19 03:42:56;;;;;;;0.60;0.60;;;22.40;99.90;;;;;;5031681;28;20028;-70
2023/08/19 03:45:22;;;;;;;1.67;1.10;;;22.40;99.90;;;;;;5032303;28;20087;-70
2023/08/19 03:47:48;;;;;;;0.85;0.85;;;22.50;99.90;;;;;;5029674;28;20029;-70
2023/08/19 03:50:14;;;;;;;0.43;0.43;;;22.40;99.90;;;;;;5034666;28;20049;-69
2023/08/19 03:52:39;;;;;;;0.65;0.45;;;22.40;99.90;;;;;;5042299;28;20025;-70
2023/08/19 03:55:06;;;;;;;0.93;0.93;;;22.50;99.90;;;;;;5030691;28;20049;-69
2023/08/19 03:57:32;;;;;;;;;;;22.50;99.90;;;;;;5023983;28;20083;-70
2023/08/19 03:59:57;;;;;;;0.65;0.65;;;22.50;99.90;;;;;;5034343;28;21073;-78
2023/08/19 04:02:23;;;;;;;0.70;0.70;;;22.60;99.90;;;;;;5034635;28;20474;-70
2023/08/19 04:05:00;;;;;;;2.00;1.80;;;22.60;99.90;;;;;;5030080;28;20364;-70
2023/08/19 04:07:26;;;;;;;1.27;1.17;;;22.60;99.90;;;;;;5026271;28;20037;-69
2023/08/19 04:09:54;;;;;;;0.95;0.95;;;22.50;99.90;;;;;;5029769;28;20038;-70
2023/08/19 04:12:21;;;;;;;1.85;1.42;;;22.50;99.90;;;;;;5028133;28;20036;-69
2023/08/19 04:14:47;;;;;;;5.95;1.50;;;22.40;99.90;;;;;;5036363;28;20036;-70
2023/08/19 04:17:12;;;;;;;2.53;1.43;;;22.40;99.90;;;;;;5034447;28;20025;-69
2023/08/19 04:19:38;;;;;;;3.63;1.40;;;22.40;99.90;;;;;;5030584;28;20266;-69
2023/08/19 04:22:04;;;;;;;3.53;1.73;;;22.40;99.90;;;;;;5036750;28;20117;-69
2023/08/19 04:24:30;;;;;;;1.25;1.15;;;22.40;99.90;;;;;;5033320;28;20032;-77
2023/08/19 04:26:55;;;;;;;0.60;0.60;;;22.30;99.90;;;;;;5028698;28;20117;-69
2023/08/19 04:29:21;;;;;;;3.30;1.10;;;22.30;99.90;;;;;;5035792;28;20026;-69
2023/08/19 04:31:47;;;;;;;1.13;1.10;;;22.40;99.90;;;;;;5026042;28;20029;-70
2023/08/19 04:34:12;;;;;;;1.77;1.67;;;22.40;99.90;;;;;;5028521;28;20071;-78
2023/08/19 04:36:38;;;;;;;1.63;1.53;;;22.30;99.90;;;;;;5034051;28;20030;-69
2023/08/19 04:39:07;;;;;;;3.00;0.80;;;22.30;99.90;;;;;;5049791;28;20083;-69
2023/08/19 04:41:33;;;;;;;1.38;1.30;;;22.30;99.90;;;;;;5033143;28;20112;-69
2023/08/19 04:43:59;;;;;;;0.38;0.38;;;22.40;99.90;;;;;;5031888;28;20420;-70
2023/08/19 04:46:25;;;;;;;0.20;0.20;;;22.50;99.90;;;;;;5025200;28;20044;-69
2023/08/19 04:48:51;;;;;;;;;;;22.40;99.90;;;;;;5045086;28;20045;-70
2023/08/19 04:51:17;;;;;;;1.00;1.00;;;22.50;99.90;;;;;;5034384;28;20224;-70
2023/08/19 04:53:42;;;;;;;1.73;1.63;;;22.40;99.90;;;;;;5032593;28;20104;-70
2023/08/19 04:56:08;;;;;;;1.17;1.00;;;22.40;99.90;;;;;;5034105;28;20030;-70
2023/08/19 04:58:34;;;;;;;0.70;0.70;;;22.40;99.90;;;;;;5033552;28;20025;-69
2023/08/19 05:01:00;;;;;;;0.20;0.20;;;22.40;99.90;;;;;;5034733;28;20120;-70
2023/08/19 05:03:26;;;;;;;0.65;0.65;;;22.50;99.90;;;;;;5029515;28;20113;-69
2023/08/19 05:05:52;;;;;;;1.83;1.73;;;22.50;99.90;;;;;;5030807;28;20045;-69
2023/08/19 05:08:17;;;;;;;0.57;0.57;;;22.50;99.90;;;;;;5033826;28;20104;-78
2023/08/19 05:10:43;;;;;;;1.50;0.83;;;22.50;99.90;;;;;;5026148;28;20100;-70
2023/08/19 05:13:09;;;;;;;0.60;0.60;;;22.60;99.90;;;;;;5025627;28;20034;-69
2023/08/19 05:15:35;;;;;;;1.55;0.73;;;22.60;99.90;;;;;;5028362;28;20022;-70
2023/08/19 05:18:01;;;;;;;1.10;1.10;;;22.60;99.90;;;;;;5033687;28;20397;-70
2023/08/19 05:20:27;;;;;;;0.80;0.80;;;22.70;99.90;;;;;;5032345;28;20112;-69
2023/08/19 05:22:52;;;;;;;0.55;0.55;;;22.70;99.90;;;;;;5025414;28;20113;-70
2023/08/19 05:25:18;;;;;;;0.93;0.93;;;22.70;99.90;;;;;;5039790;28;20034;-70
2023/08/19 05:27:44;;;;;;;0.43;0.43;;;22.70;99.90;;;;;;5051227;28;20013;-70
2023/08/19 05:30:10;;;;;;;1.07;1.03;;;22.70;99.90;;;;;;5028434;28;20112;-69
2023/08/19 05:32:36;;;;;;;0.88;0.88;;;22.70;99.90;;;;;;5035836;28;20029;-70
2023/08/19 05:35:02;;;;;;;0.60;0.60;;;22.80;99.90;;;;;;5035631;28;20030;-78
2023/08/19 05:37:27;;;;;;;2.40;1.52;;;22.80;99.90;;;;;;5037058;28;20115;-70
2023/08/19 05:39:53;;;;;;;0.30;0.30;;;22.80;99.90;;;;;;5032018;28;20420;-70
2023/08/19 05:42:19;;;;;;;0.67;0.67;;;22.80;99.90;;;;;;5047052;28;20025;-69
2023/08/19 05:44:45;;;;;;;0.27;0.27;;;22.80;99.90;;;;;;5031796;28;20292;-78
2023/08/19 05:47:10;;;;;;;0.93;0.93;;;22.90;99.90;;;;;;5037883;28;20033;-69
2023/08/19 05:49:36;;;;;;;0.97;0.97;;;22.90;99.90;;;;;;5033204;28;20033;-69
2023/08/19 05:52:02;;;;;;;2.10;0.97;;;22.90;99.90;;;;;;5037278;28;20037;-78
2023/08/19 05:54:28;;;;;;;0.55;0.55;;;22.90;99.90;;;;;;5050901;28;20037;-70
2023/08/19 05:56:53;;;;;;;3.93;1.60;;;22.90;99.90;;;;;;5037136;28;20033;-69
2023/08/19 05:59:19;;;;;;;1.60;1.23;;;22.90;99.90;;;;;;5037177;28;20033;-70
2023/08/19 06:01:45;;;;;;;1.33;1.23;;;22.90;99.90;;;;;;5037377;28;20109;-79
2023/08/19 06:04:10;;;;;;;3.57;1.47;;;23.00;99.90;;;;;;5028307;28;20030;-70
2023/08/19 06:06:36;;;;;;;0.73;0.73;;;23.00;99.90;;;;;;5035953;28;20262;-70
2023/08/19 06:09:02;;;;;;;0.83;0.83;;;23.00;99.90;;;;;;5037646;28;20108;-71
2023/08/19 06:11:28;;;;;;;0.60;0.60;;;23.10;99.90;;;;;;5036442;28;20527;-70
2023/08/19 06:13:54;;;;;;;0.40;0.40;;;23.20;99.90;;;;;;5031943;28;20080;-69
2023/08/19 06:16:19;;;;;;;1.50;1.40;;;23.20;99.90;;;;;;5032943;28;20116;-70
2023/08/19 06:18:45;;;;;;;1.53;1.20;;;23.30;99.90;;;;;;5036596;28;20508;-79
2023/08/19 06:21:12;;;;;;;1.43;0.93;;;23.40;99.90;;;;;;5028170;28;20291;-69
2023/08/19 06:23:38;;;;;;;9.73;1.63;;;23.40;99.90;;;;;;5030225;28;20021;-70
2023/08/19 06:26:03;;;;;;;2.00;1.17;;;23.50;99.90;;;;;;5036483;28;20025;-70
2023/08/19 06:28:29;;;;;;;0.53;0.53;;;23.50;99.90;;;;;;5030859;28;20053;-69
2023/08/19 06:30:56;;;;;;;0.73;0.70;;;23.60;99.90;;;;;;5038072;28;20396;-70
2023/08/19 06:33:22;;;;;;;0.43;0.43;;;23.60;99.90;;;;;;5032612;28;20028;-69
2023/08/19 06:35:49;;;;;;;1.02;0.93;;;23.60;99.90;;;;;;5034212;28;20313;-70
2023/08/19 06:38:18;;;;;;;0.65;0.65;;;23.60;99.90;;;;;;5028273;28;20287;-70
2023/08/19 06:41:09;;;;;;;0.80;0.80;;;23.70;99.90;;;;;;5029776;28;20025;-77
2023/08/19 06:43:37;;;;;;;2.30;1.98;;;23.70;99.90;;;;;;5031558;28;20029;-70
2023/08/19 06:46:05;;;;;;;2.13;1.65;;;23.70;99.90;;;;;;5032287;28;20107;-70
2023/08/19 06:48:32;;;;;;;0.30;0.30;;;23.70;99.90;;;;;;5026046;28;20120;-78
2023/08/19 06:50:59;;;;;;;1.83;1.17;;;23.80;99.90;;;;;;5031339;28;20121;-69
2023/08/19 06:53:25;;;;;;;0.57;0.57;;;23.80;99.90;;;;;;5034235;28;20033;-70
2023/08/19 06:56:12;;;;;;;1.65;1.55;;;23.80;99.90;;;;;;5039495;28;20029;-69
2023/08/19 06:58:43;;;;;;;0.82;0.82;;;23.90;99.90;;;;;;5040451;28;20355;-70
2023/08/19 07:01:22;;;;;;;1.40;1.30;;;24.00;99.90;;;;;;5028796;28;20025;-69
2023/08/19 07:03:52;;;;;;;4.47;1.55;;;24.20;99.90;;;;;;5033577;28;20027;-69
2023/08/19 07:06:20;;;;;;;1.25;1.15;;;24.30;99.90;;;;;;5027409;28;20475;-70
2023/08/19 07:08:46;;;;;;;0.85;0.85;;;24.40;99.90;;;;;;5032955;28;20041;-72
2023/08/19 07:11:14;;;;;;;0.98;0.98;;;24.50;99.90;;;;;;5025944;28;20108;-70
2023/08/19 07:13:40;;;;;;;1.75;1.42;;;24.50;99.90;;;;;;5018894;28;20048;-69
2023/08/19 07:16:07;;;;;;;0.90;0.90;;;24.60;99.90;;;;;;5031490;28;20034;-70
2023/08/19 07:18:39;;;;;;;3.13;1.45;;;24.60;99.90;;;;;;5025732;28;20083;-70
2023/08/19 07:21:17;;;;;;;6.15;1.65;;;24.70;99.90;;;;;;5023642;28;20454;-70
2023/08/19 07:23:47;;;;;;;3.15;1.92;;;24.70;99.90;;;;;;5019791;28;20496;-75
2023/08/19 07:26:14;;;;;;;1.52;1.25;;;24.80;99.90;;;;;;5030318;28;20328;-70
2023/08/19 07:28:39;;;;;;;;;;;24.80;99.90;;;;;;5025519;28;20018;-77
2023/08/19 07:31:05;;;;;;;0.63;0.63;;;24.80;99.90;;;;;;5031326;28;19913;-69
2023/08/19 07:33:31;;;;;;;3.08;2.05;;;24.80;99.90;;;;;;5036911;28;20464;-69
2023/08/19 07:35:58;;;;;;;2.53;1.33;;;24.80;99.90;;;;;;5025014;28;20112;-70
2023/08/19 07:38:24;;;;;;;0.47;0.47;;;24.70;99.90;;;;;;5051359;28;20083;-70
2023/08/19 07:40:50;;;;;;;0.45;0.45;;;24.60;99.90;;;;;;5021874;28;20076;-79
2023/08/19 07:43:15;;;;;;;0.95;0.93;;;24.50;99.90;;;;;;5023341;28;20037;-70
2023/08/19 07:45:41;;;;;;;1.15;1.15;;;24.60;99.90;;;;;;5032155;28;20045;-70
2023/08/19 07:48:07;;;;;;;1.47;1.37;;;24.60;99.90;;;;;;5035593;28;20026;-70
2023/08/19 07:50:32;;;;;;;0.90;0.90;;;24.60;99.90;;;;;;5035909;28;20028;-70
2023/08/19 07:52:58;;;;;;;1.27;1.02;;;24.60;99.90;;;;;;5038938;28;20036;-70
2023/08/19 07:55:24;;;;;;;0.60;0.60;;;24.60;99.90;;;;;;5043360;28;20442;-71
2023/08/19 07:57:49;;;;;;;0.73;0.73;;;24.60;99.90;;;;;;5020805;28;20099;-70
2023/08/19 08:00:15;;;;;;;1.90;1.80;;;24.60;99.90;;;;;;5030438;28;20290;-70
2023/08/19 08:02:41;;;;;;;0.70;0.65;;;24.60;99.90;;;;;;5026003;28;20059;-79
2023/08/19 08:05:07;;;;;;;2.37;1.63;;;24.60;99.90;;;;;;5038372;28;20025;-70
2023/08/19 08:07:33;;;;;;;3.88;1.02;;;24.60;99.90;;;;;;5032562;28;20104;-79
2023/08/19 08:09:58;;;;;;;0.85;0.75;;;24.60;99.90;;;;;;5036961;28;20033;-70
2023/08/19 08:12:24;;;;;;;4.20;1.83;;;24.60;99.90;;;;;;5036314;28;20033;-70
2023/08/19 08:14:50;;;;;;;1.20;1.10;;;24.60;99.90;;;;;;5045421;28;20030;-71
2023/08/19 08:17:15;;;;;;;0.70;0.70;;;24.60;99.90;;;;;;5043681;28;20168;-70
2023/08/19 08:19:41;;;;;;;1.20;1.10;;;24.70;99.90;;;;;;5038839;28;20044;-70
2023/08/19 08:22:07;;;;;;;0.88;0.88;;;24.70;99.90;;;;;;5029185;28;20025;-70
2023/08/19 08:24:33;;;;;;;1.80;1.70;;;24.70;99.90;;;;;;5028902;28;20061;-70
2023/08/19 08:26:59;;;;;;;2.72;1.67;;;24.80;99.90;;;;;;5046609;28;20053;-71
2023/08/19 08:29:25;;;;;;;1.13;1.07;;;24.80;99.90;;;;;;5030821;28;20079;-70
2023/08/19 08:31:50;;;;;;;1.55;1.45;;;24.90;99.90;;;;;;5043987;28;20029;-70
2023/08/19 08:34:16;;;;;;;1.45;1.10;;;24.90;99.90;;;;;;5027312;28;20306;-70
2023/08/19 08:36:42;;;;;;;1.33;1.08;;;24.90;99.90;;;;;;5044426;28;20041;-76
2023/08/19 08:39:08;;;;;;;0.93;0.88;;;24.80;99.90;;;;;;5036594;28;20033;-70
2023/08/19 08:41:38;;;;;;;1.15;1.15;;;24.80;99.90;;;;;;5038918;28;20025;-70
2023/08/19 08:44:06;;;;;;;1.60;1.50;;;24.80;99.90;;;;;;5031090;28;20774;-70
2023/08/19 08:46:38;;;;;;;0.40;0.40;;;24.90;99.90;;;;;;5042269;28;20108;-70
2023/08/19 08:49:05;;;;;;;1.52;1.42;;;24.90;99.90;;;;;;5049562;28;20420;-70
2023/08/19 08:51:31;;;;;;;1.10;0.95;;;25.00;99.90;;;;;;5024396;28;20036;-70
2023/08/19 08:53:58;;;;;;;2.10;1.92;;;25.00;99.90;;;;;;5040592;28;20037;-71
2023/08/19 08:56:24;;;;;;;1.45;1.35;;;25.00;99.90;;;;;;5027701;28;20448;-69
2023/08/19 08:58:51;;;;;;;1.77;1.67;;;25.00;99.90;;;;;;5046298;28;20037;-69
2023/08/19 09:01:17;;;;;;;;;;;25.10;99.90;;;;;;5031495;28;20117;-69
2023/08/19 09:03:45;;;;;;;2.13;1.65;;;25.20;99.90;;;;;;5018879;28;20000;-70
2023/08/19 09:06:15;;;;;;;1.08;1.00;;;25.30;99.90;;;;;;5015520;28;20041;-70
2023/08/19 09:09:02;;;;;;;1.58;1.48;;;25.40;99.90;;;;;;5031467;28;20078;-70
2023/08/19 09:11:33;;;;;;;2.25;1.27;;;25.60;99.90;;;;;;5035103;28;20017;-71
2023/08/19 09:14:04;;;;;;;1.55;1.33;;;25.90;99.90;;;;;;5037559;28;20028;-71
2023/08/19 09:16:30;;;;;;;1.42;1.33;;;26.20;99.90;;;;;;5038423;28;20064;-71
2023/08/19 09:18:55;;;;;;;1.33;1.33;;;26.50;99.90;;;;;;5048028;28;20064;-71
2023/08/19 09:21:23;;;;;;;1.27;1.20;;;26.60;99.90;;;;;;5037970;28;20312;-71
2023/08/19 09:23:49;;;;;;;4.88;1.98;;;26.50;99.90;;;;;;5062371;28;20428;-72
2023/08/19 09:26:17;;;;;;;1.07;1.07;;;26.50;99.90;;;;;;5042703;28;20041;-71
2023/08/19 09:28:42;;;;;;;1.75;1.63;;;26.40;99.90;;;;;;5025370;28;20302;-71
2023/08/19 09:31:20;;;;;;;1.25;1.25;;;26.20;99.90;;;;;;5031190;28;20060;-72
2023/08/19 09:33:49;;;;;;;1.42;1.33;;;26.20;99.90;;;;;;5024810;28;20380;-71
2023/08/19 09:36:15;;;;;;;1.27;1.17;;;26.10;99.90;;;;;;5030164;28;20109;-72
2023/08/19 09:38:42;;;;;;;1.13;1.13;;;26.10;99.90;;;;;;5023326;28;20029;-71
2023/08/19 09:41:08;;;;;;;2.65;0.93;;;25.90;99.90;;;;;;5032184;28;20080;-70
2023/08/19 09:43:39;;;;;;;4.50;3.27;;;25.80;99.90;;;;;;5034212;28;20026;-72
2023/08/19 09:46:05;;;;;;;0.75;0.75;;;25.70;99.90;;;;;;5032231;28;20761;-71
2023/08/19 09:48:31;;;;;;;0.93;0.93;;;25.50;99.90;;;;;;5034804;28;20025;-70
2023/08/19 09:50:57;;;;;;;1.17;1.17;;;25.40;99.90;;;;;;5033643;28;20041;-70
2023/08/19 09:53:26;;;;;;;1.38;1.27;;;25.30;99.90;;;;;;5032013;28;20057;-81
2023/08/19 09:55:52;;;;;;;1.83;1.65;;;25.20;99.90;;;;;;5036359;28;20064;-72
2023/08/19 09:58:18;;;;;;;0.90;0.90;;;25.20;99.90;;;;;;5027366;28;20060;-71
2023/08/19 10:00:43;;;;;;;0.95;0.95;;;25.20;99.90;;;;;;5035839;28;20078;-79
2023/08/19 10:03:09;;;;;;;0.98;0.98;;;25.20;99.90;;;;;;5036552;28;20038;-70
2023/08/19 10:05:39;;;;;;;1.00;0.77;;;25.20;99.90;;;;;;5025671;28;20117;-70
2023/08/19 10:08:19;;;;;;;0.85;0.85;;;25.30;99.90;;;;;;5029211;28;20588;-70
2023/08/19 10:10:45;;;;;;;1.30;0.75;;;25.40;99.90;;;;;;5031282;28;20021;-79
2023/08/19 10:13:14;;;;;;;0.55;0.55;;;25.40;99.90;;;;;;5026199;28;20091;-71
2023/08/19 10:15:42;;;;;;;1.02;0.47;;;25.40;99.90;;;;;;5030510;28;20107;-73
2023/08/19 10:18:19;;;;;;;0.15;0.15;;;25.40;99.90;;;;;;5032883;28;20632;-71
2023/08/19 10:20:52;;;;;;;3.92;1.05;;;25.50;99.90;;;;;;5034281;28;20321;-70
2023/08/19 10:23:19;;;;;;;0.10;0.10;;;25.60;99.90;;;;;;5022486;28;20018;-70
2023/08/19 10:25:45;;;;;;;2.40;0.40;;;25.70;99.90;;;;;;5030619;28;20051;-70
2023/08/19 10:28:13;;;;;;;0.77;0.77;;;25.80;99.90;;;;;;5022571;28;20029;-70
2023/08/19 10:30:39;;;;;;;0.28;0.28;;;25.80;99.90;;;;;;5031931;28;20026;-80
2023/08/19 10:33:41;;;;;;;1.45;0.98;;;25.80;99.90;;;;;;5030255;28;20320;-71
2023/08/19 10:36:08;;;;;;;0.13;0.13;;;25.90;99.90;;;;;;5033954;28;20029;-70
2023/08/19 10:38:56;;;;;;;0.47;0.32;;;25.80;99.90;;;;;;5033736;28;20080;-70
2023/08/19 10:41:37;;;;;;;0.35;0.35;;;26.00;99.90;;;;;;5036027;28;20032;-80
2023/08/19 10:44:04;;;;;;;0.65;0.43;;;25.90;99.90;;;;;;5027603;28;20421;-71
2023/08/19 10:46:33;;;;;;;0.52;0.35;;;25.90;99.90;;;;;;5033078;28;20448;-71
2023/08/19 10:49:00;;;;;;;0.35;0.35;;;25.80;99.90;;;;;;5024352;28;20033;-72
2023/08/19 10:51:47;;;;;;;0.40;0.40;;;25.80;99.90;;;;;;5031551;28;20026;-72
2023/08/19 10:54:14;;;;;;;0.75;0.63;;;25.70;99.90;;;;;;5027677;28;20029;-79
2023/08/19 10:56:52;;;;;;;1.30;0.40;;;25.60;99.90;;;;;;5033456;28;20103;-79
2023/08/19 10:59:20;;;;;;;0.90;0.45;;;25.50;99.90;;;;;;5035673;28;20425;-71
2023/08/19 11:01:45;;;;;;;0.82;0.82;;;25.40;99.90;;;;;;5034343;28;20381;-78
2023/08/19 11:04:12;;;;;;;0.10;0.10;;;25.30;99.90;;;;;;5022962;28;20105;-71
2023/08/19 11:06:39;;;;;;;0.00;0.00;;;25.20;99.90;;;;;;5031468;28;20116;-71
2023/08/19 11:09:05;;;;;;;2.33;0.88;;;25.20;99.90;;;;;;5041461;28;20434;-71
2023/08/19 11:11:31;;;;;;;0.45;0.45;;;25.20;99.90;;;;;;5049372;28;20120;-70
2023/08/19 11:13:58;;;;;;;0.55;0.55;;;25.10;99.90;;;;;;5049076;28;20133;-72
2023/08/19 11:16:27;;;;;;;0.35;0.35;;;25.10;99.90;;;;;;5044865;28;20021;-70
2023/08/19 11:18:53;;;;;;;0.10;0.10;;;25.20;99.90;;;;;;5040448;28;20033;-70
2023/08/19 11:21:19;;;;;;;0.20;0.13;;;25.30;99.90;;;;;;5035588;28;20025;-70
2023/08/19 11:23:45;;;;;;;0.10;0.10;;;25.40;99.90;;;;;;5046320;28;20082;-71
2023/08/19 11:26:12;;;;;;;5.73;0.83;;;25.30;99.90;;;;;;5034750;28;20033;-70
2023/08/19 11:28:38;;;;;;;1.45;0.70;;;25.30;99.90;;;;;;5047852;28;20021;-70
2023/08/19 11:31:04;;;;;;;0.80;0.80;;;25.20;99.90;;;;;;5039979;28;20099;-70
2023/08/19 11:33:31;;;;;;;2.08;1.30;;;25.30;99.90;;;;;;5046945;28;20034;-71
2023/08/19 11:35:57;;;;;;;0.85;0.85;;;25.20;99.90;;;;;;5036726;28;20092;-71
2023/08/19 11:38:23;;;;;;;1.20;1.10;;;25.30;99.90;;;;;;5068113;28;20066;-70
2023/08/19 11:40:52;;;;;;;0.15;0.15;;;25.20;99.90;;;;;;5035319;28;20029;-71
2023/08/19 11:43:22;;;;;;;1.77;0.95;;;25.20;99.90;;;;;;5051851;28;20021;-71
2023/08/19 11:45:48;;;;;;;2.05;1.10;;;25.10;99.90;;;;;;5033880;28;20125;-71
2023/08/19 11:48:15;;;;;;;1.30;1.20;;;25.10;99.90;;;;;;5040975;28;20089;-71
2023/08/19 11:50:44;;;;;;;;;;;25.00;99.90;;;;;;5037839;28;20748;-80
2023/08/19 11:53:23;;;;;;;1.83;1.40;;;25.00;99.90;;;;;;5028622;28;19905;-78
2023/08/19 11:55:57;;;;;;;0.57;0.57;;;24.90;99.90;;;;;;5036050;28;20025;-77
2023/08/19 11:58:44;;;;;;;2.25;1.48;;;24.80;99.90;;;;;;5036334;28;20025;-70
2023/08/19 12:01:10;;;;;;;0.90;0.90;;;24.70;99.90;;;;;;5043471;28;20047;-69
2023/08/19 12:03:35;;;;;;;1.45;1.10;;;24.60;99.90;;;;;;5027035;28;20025;-71
2023/08/19 12:06:02;;;;;;;0.22;0.22;;;24.50;99.90;;;;;;5033488;28;20056;-70
2023/08/19 12:08:32;;;;;;;0.50;0.50;;;24.40;99.90;;;;;;5048608;28;20439;-70
2023/08/19 12:10:58;;;;;;;0.57;0.57;;;24.20;99.90;;;;;;5054329;28;20033;-72
2023/08/19 12:13:27;;;;;;;0.50;0.50;;;24.20;99.90;;;;;;5022654;28;20048;-71
2023/08/19 12:15:54;;;;;;;2.10;1.45;;;24.20;99.90;;;;;;5038824;28;20325;-71
2023/08/19 12:18:20;;;;;;;0.40;0.40;;;24.10;99.90;;;;;;5032450;28;20139;-71
2023/08/19 12:20:47;;;;;;;1.33;1.33;;;24.10;99.90;;;;;;5025031;28;20065;-78
2023/08/19 12:23:12;;;;;;;2.25;1.20;;;24.00;99.90;;;;;;5021734;28;20029;-70
2023/08/19 12:25:52;;;;;;;1.27;1.27;;;24.00;99.90;;;;;;5063007;28;20024;-72
2023/08/19 12:28:18;;;;;;;0.68;0.65;;;24.00;99.90;;;;;;5032247;28;20036;-70
2023/08/19 12:30:44;;;;;;;0.85;0.85;;;24.00;99.90;;;;;;5032221;28;20076;-79
2023/08/19 12:33:12;;;;;;;2.53;0.85;;;23.90;99.90;;;;;;5032176;28;20442;-70
2023/08/19 12:35:37;;;;;;;4.53;1.60;;;23.90;99.90;;;;;;5034942;28;20031;-70
2023/08/19 12:38:08;;;;;;;1.15;1.00;;;23.80;99.90;;;;;;5022768;28;20295;-70
2023/08/19 12:40:34;;;;;;;2.28;1.77;;;23.80;99.90;;;;;;5023704;28;20447;-70
2023/08/19 12:43:00;;;;;;;0.20;0.20;;;23.80;99.90;;;;;;5028195;28;20025;-70
2023/08/19 12:45:26;;;;;;;1.38;1.10;;;23.70;99.90;;;;;;5032342;28;20045;-71
2023/08/19 12:47:52;;;;;;;0.90;0.65;;;23.60;99.90;;;;;;5029343;28;20079;-71
2023/08/19 12:50:19;;;;;;;1.75;0.50;;;23.60;99.90;;;;;;5030825;28;20025;-71